Time;durP1;ratioP1;P1;durP2;ratioP2;P2;SDS_P1;SDS_P2;PMS_P1;PMS_P2;Temp;Humidity;BMP_temperature;BMP_pressure;BME280_temperature;BME280_humidity;BME280_pressure;Samples;Min_cycle;Max_cycle;Signal;HPM_P1;HPM_P2
2023/07/06 00:00:06;;;;;;;4.80;2.20;;;16.70;99.90;;;;;;2091983;28;20653;-71
2023/07/06 00:01:09;;;;;;;2.65;2.03;;;16.70;99.90;;;;;;2091947;28;20017;-71
2023/07/06 00:02:09;;;;;;;2.95;2.13;;;16.70;99.90;;;;;;2092791;28;20024;-71
2023/07/06 00:03:14;;;;;;;2.47;2.13;;;16.70;99.90;;;;;;2093298;28;20020;-71
2023/07/06 00:04:15;;;;;;;2.95;2.40;;;16.70;99.90;;;;;;2092856;28;20374;-71
2023/07/06 00:05:17;;;;;;;7.03;2.50;;;16.70;99.90;;;;;;2089519;28;20544;-71
2023/07/06 00:06:18;;;;;;;2.63;2.40;;;16.70;99.90;;;;;;2091230;28;20357;-71
2023/07/06 00:07:22;;;;;;;2.58;2.10;;;16.70;99.90;;;;;;2093663;28;20021;-71
2023/07/06 00:08:23;;;;;;;6.40;2.70;;;16.70;99.90;;;;;;2091394;28;20465;-71
2023/07/06 00:09:23;;;;;;;2.92;2.42;;;16.70;99.90;;;;;;2090603;28;20029;-71
2023/07/06 00:10:24;;;;;;;3.13;2.47;;;16.70;99.90;;;;;;2091178;28;20020;-71
2023/07/06 00:11:32;;;;;;;2.53;1.85;;;16.70;99.90;;;;;;2091973;28;20120;-71
2023/07/06 00:12:34;;;;;;;2.88;1.95;;;16.70;99.90;;;;;;2092704;28;20689;-71
2023/07/06 00:13:35;;;;;;;4.05;2.13;;;16.70;99.90;;;;;;2091644;28;20043;-71
2023/07/06 00:14:36;;;;;;;2.28;2.08;;;16.60;99.90;;;;;;2085932;28;20032;-71
2023/07/06 00:15:37;;;;;;;3.55;2.13;;;16.60;99.90;;;;;;2086161;28;20059;-71
2023/07/06 00:16:41;;;;;;;2.38;2.17;;;16.60;99.90;;;;;;2091277;28;20029;-71
2023/07/06 00:17:41;;;;;;;2.53;1.70;;;16.60;99.90;;;;;;2086428;28;20119;-71
2023/07/06 00:18:42;;;;;;;7.57;2.30;;;16.60;99.90;;;;;;2085726;28;20029;-71
2023/07/06 00:19:43;;;;;;;2.60;2.10;;;16.60;99.90;;;;;;2091000;28;20024;-71
2023/07/06 00:20:43;;;;;;;4.75;2.30;;;16.60;99.90;;;;;;2090537;28;20448;-71
2023/07/06 00:21:45;;;;;;;4.75;2.78;;;16.60;99.90;;;;;;2092084;28;20465;-71
2023/07/06 00:22:45;;;;;;;3.13;1.90;;;16.60;99.90;;;;;;2091835;28;20079;-71
2023/07/06 00:23:47;;;;;;;2.38;2.05;;;16.60;99.90;;;;;;2091467;28;20021;-71
2023/07/06 00:24:48;;;;;;;4.28;2.70;;;16.60;99.90;;;;;;2094742;28;20017;-71
2023/07/06 00:25:49;;;;;;;5.55;2.80;;;16.60;99.90;;;;;;2095451;28;20016;-71
2023/07/06 00:26:49;;;;;;;4.18;2.67;;;16.60;99.90;;;;;;2088763;28;20485;-71
2023/07/06 00:27:50;;;;;;;3.90;2.03;;;16.60;99.90;;;;;;2093249;28;20033;-71
2023/07/06 00:28:53;;;;;;;4.28;2.00;;;16.60;99.90;;;;;;2092473;28;20036;-71
2023/07/06 00:29:56;;;;;;;5.55;2.38;;;16.60;99.90;;;;;;2093323;28;20559;-71
2023/07/06 00:31:08;;;;;;;5.68;2.15;;;16.50;99.90;;;;;;2091233;28;20028;-71
2023/07/06 00:32:26;;;;;;;3.75;2.47;;;16.50;99.90;;;;;;2091372;28;20108;-71
2023/07/06 00:33:26;;;;;;;2.88;2.05;;;16.50;99.90;;;;;;2091013;28;20050;-71
2023/07/06 00:34:27;;;;;;;3.55;2.70;;;16.50;99.90;;;;;;2093780;28;20050;-71
2023/07/06 00:35:27;;;;;;;3.20;2.63;;;16.50;99.90;;;;;;2090841;28;20127;-71
2023/07/06 00:36:28;;;;;;;5.75;2.22;;;16.50;99.90;;;;;;2091152;28;20032;-71
2023/07/06 00:37:29;;;;;;;6.38;3.20;;;16.50;99.90;;;;;;2090853;28;20528;-71
2023/07/06 00:38:30;;;;;;;3.85;2.08;;;16.40;99.90;;;;;;2090858;28;20790;-71
2023/07/06 00:39:30;;;;;;;4.28;2.30;;;16.40;99.90;;;;;;2092382;28;20032;-71
2023/07/06 00:40:31;;;;;;;3.00;2.20;;;16.40;99.90;;;;;;2090853;28;20053;-71
2023/07/06 00:41:32;;;;;;;3.05;2.70;;;16.40;99.90;;;;;;2092722;28;20424;-71
2023/07/06 00:42:34;;;;;;;3.00;2.22;;;16.50;99.90;;;;;;2090686;28;20040;-71
2023/07/06 00:43:52;;;;;;;2.88;2.30;;;16.40;99.90;;;;;;2091227;28;20020;-71
2023/07/06 00:44:55;;;;;;;4.63;2.45;;;16.40;99.90;;;;;;2093199;28;20043;-71
2023/07/06 00:46:10;;;;;;;3.05;1.92;;;16.40;99.90;;;;;;2091904;28;20021;-71
2023/07/06 00:47:12;;;;;;;4.03;2.05;;;16.40;99.90;;;;;;2091708;28;20067;-71
2023/07/06 00:48:31;;;;;;;3.92;2.08;;;16.40;99.90;;;;;;2092475;28;20028;-71
2023/07/06 00:49:32;;;;;;;5.78;2.20;;;16.40;99.90;;;;;;2093074;28;20017;-71
2023/07/06 00:50:33;;;;;;;8.23;2.30;;;16.40;99.90;;;;;;2094717;28;20029;-71
2023/07/06 00:51:37;;;;;;;4.63;2.28;;;16.40;99.90;;;;;;2095630;28;20532;-71
2023/07/06 00:52:44;;;;;;;6.72;2.75;;;16.30;99.90;;;;;;2094732;28;20485;-71
2023/07/06 00:53:51;;;;;;;3.72;2.30;;;16.30;99.90;;;;;;2095325;28;20027;-71
2023/07/06 00:54:51;;;;;;;3.38;2.45;;;16.40;99.90;;;;;;2094166;28;20504;-71
2023/07/06 00:55:54;;;;;;;5.28;2.28;;;16.30;99.90;;;;;;2092178;28;20405;-71
2023/07/06 00:56:55;;;;;;;3.33;2.15;;;16.40;99.90;;;;;;2093932;28;20376;-71
2023/07/06 00:58:01;;;;;;;6.05;2.17;;;16.30;99.90;;;;;;2093690;28;20036;-71
2023/07/06 00:59:05;;;;;;;3.13;2.10;;;16.30;99.90;;;;;;2091901;28;20712;-71
2023/07/06 01:00:11;;;;;;;3.90;2.20;;;16.40;99.90;;;;;;2093679;28;20392;-71
2023/07/06 01:01:19;;;;;;;2.72;2.20;;;16.30;99.90;;;;;;2096746;28;20655;-71
2023/07/06 01:02:19;;;;;;;2.83;2.13;;;16.30;99.90;;;;;;2094063;28;20016;-71
2023/07/06 01:03:22;;;;;;;5.80;2.20;;;16.30;99.90;;;;;;2093199;28;20021;-71
2023/07/06 01:04:22;;;;;;;2.22;2.03;;;16.30;99.90;;;;;;2093756;28;20167;-71
2023/07/06 01:05:25;;;;;;;2.33;2.13;;;16.30;99.90;;;;;;2092759;28;20029;-71
2023/07/06 01:06:33;;;;;;;3.45;2.38;;;16.30;99.90;;;;;;2092407;28;20119;-71
2023/07/06 01:07:36;;;;;;;3.13;2.20;;;16.20;99.90;;;;;;2094574;28;20383;-71
2023/07/06 01:08:37;;;;;;;3.22;2.30;;;16.30;99.90;;;;;;2094333;28;20021;-71
2023/07/06 01:09:39;;;;;;;3.95;1.90;;;16.30;99.90;;;;;;2094209;28;20021;-71
2023/07/06 01:10:40;;;;;;;3.67;2.10;;;16.30;99.90;;;;;;2092689;28;20021;-71
2023/07/06 01:11:41;;;;;;;3.67;1.95;;;16.30;99.90;;;;;;2093161;28;20126;-71
2023/07/06 01:12:42;;;;;;;3.15;2.33;;;16.30;99.90;;;;;;2093857;28;20070;-71
2023/07/06 01:13:50;;;;;;;2.30;2.10;;;16.20;99.90;;;;;;2093117;28;20099;-71
2023/07/06 01:14:51;;;;;;;3.55;2.22;;;16.20;99.90;;;;;;2093463;28;20025;-71
2023/07/06 01:16:14;;;;;;;5.25;2.00;;;16.20;99.90;;;;;;2093295;28;20541;-71
2023/07/06 01:17:21;;;;;;;4.10;2.33;;;16.20;99.90;;;;;;2091599;28;20108;-71
2023/07/06 01:18:53;;;;;;;3.08;2.13;;;16.20;99.90;;;;;;2090731;28;20026;-71
2023/07/06 01:20:30;;;;;;;2.72;2.03;;;16.10;99.90;;;;;;2091738;28;20525;-71
2023/07/06 01:21:48;;;;;;;2.10;1.90;;;16.10;99.90;;;;;;2091798;28;20040;-71
2023/07/06 01:23:27;;;;;;;6.43;2.28;;;16.10;99.90;;;;;;2092800;28;20480;-71
2023/07/06 01:24:47;;;;;;;4.95;2.47;;;16.00;99.90;;;;;;2091981;28;20040;-71
2023/07/06 01:26:13;;;;;;;3.30;2.20;;;16.00;99.90;;;;;;2089618;28;20071;-71
2023/07/06 01:27:55;;;;;;;3.92;2.47;;;16.00;99.90;;;;;;2092576;28;20024;-71
2023/07/06 01:29:18;;;;;;;2.58;2.30;;;15.90;99.90;;;;;;2093832;28;20037;-71
2023/07/06 01:30:37;;;;;;;2.75;2.20;;;15.90;99.90;;;;;;2092563;28;20032;-71
2023/07/06 01:32:07;;;;;;;3.63;2.15;;;15.90;99.90;;;;;;2093870;28;21058;-71
2023/07/06 01:33:16;;;;;;;2.90;2.20;;;15.90;99.90;;;;;;2091796;28;20605;-71
2023/07/06 01:34:42;;;;;;;5.38;2.50;;;15.90;99.90;;;;;;2091910;28;20499;-71
2023/07/06 01:35:57;;;;;;;2.63;2.15;;;15.90;99.90;;;;;;2092126;28;20051;-71
2023/07/06 01:37:18;;;;;;;3.55;2.28;;;15.80;99.90;;;;;;2093343;28;20070;-71
2023/07/06 01:38:22;;;;;;;4.30;1.98;;;15.80;99.90;;;;;;2094059;28;20040;-71
2023/07/06 01:39:26;;;;;;;4.65;2.50;;;15.80;99.90;;;;;;2093210;28;20388;-71
2023/07/06 01:40:27;;;;;;;3.58;2.28;;;15.80;99.90;;;;;;2091930;28;20111;-71
2023/07/06 01:41:27;;;;;;;6.93;2.53;;;15.80;99.90;;;;;;2092623;28;20070;-71
2023/07/06 01:42:30;;;;;;;3.03;2.20;;;15.80;99.90;;;;;;2093632;28;20427;-71
2023/07/06 01:43:30;;;;;;;5.80;2.78;;;15.80;99.90;;;;;;2093853;28;20021;-71
2023/07/06 01:44:31;;;;;;;2.78;2.22;;;15.80;99.90;;;;;;2092430;28;20051;-71
2023/07/06 01:45:33;;;;;;;3.15;2.13;;;15.80;99.90;;;;;;2094042;28;20115;-71
2023/07/06 01:46:33;;;;;;;3.22;2.10;;;15.80;99.90;;;;;;2093724;28;20020;-71
2023/07/06 01:47:39;;;;;;;5.75;2.63;;;15.80;99.90;;;;;;2094084;28;20139;-71
2023/07/06 01:48:40;;;;;;;3.42;2.33;;;15.80;99.90;;;;;;2095481;28;20077;-71
2023/07/06 01:49:41;;;;;;;7.03;2.30;;;15.80;99.90;;;;;;2093087;28;20051;-71
2023/07/06 01:51:18;;;;;;;2.50;2.00;;;15.80;99.90;;;;;;2091447;28;20017;-71
2023/07/06 01:52:41;;;;;;;2.63;2.42;;;15.80;99.90;;;;;;2091616;28;20025;-71
2023/07/06 01:53:45;;;;;;;2.22;1.98;;;15.70;99.90;;;;;;2093712;28;20100;-71
2023/07/06 01:55:02;;;;;;;6.15;2.53;;;15.70;99.90;;;;;;2092903;28;20115;-71
2023/07/06 01:56:13;;;;;;;2.85;2.60;;;15.70;99.90;;;;;;2091271;28;20028;-71
2023/07/06 01:57:31;;;;;;;3.42;2.20;;;15.70;99.90;;;;;;2092746;28;20033;-71
2023/07/06 01:58:44;;;;;;;3.20;2.10;;;15.60;99.90;;;;;;2093855;28;20101;-71
2023/07/06 01:59:49;;;;;;;3.78;2.30;;;15.60;99.90;;;;;;2094820;28;20047;-71
2023/07/06 02:00:55;;;;;;;4.03;2.67;;;15.60;99.90;;;;;;2093162;28;20104;-71
2023/07/06 02:02:01;;;;;;;3.92;2.75;;;15.60;99.90;;;;;;2094835;28;20028;-71
2023/07/06 02:03:05;;;;;;;4.28;2.55;;;15.60;99.90;;;;;;2092506;28;20033;-71
2023/07/06 02:04:07;;;;;;;2.95;1.90;;;15.60;99.90;;;;;;2090496;28;20673;-71
2023/07/06 02:05:08;;;;;;;3.97;2.25;;;15.60;99.90;;;;;;2093092;28;20028;-71
2023/07/06 02:06:11;;;;;;;3.42;2.30;;;15.60;99.90;;;;;;2093187;28;20028;-71
2023/07/06 02:07:13;;;;;;;4.40;2.35;;;15.60;99.90;;;;;;2092564;28;20358;-71
2023/07/06 02:08:14;;;;;;;3.75;2.92;;;15.60;99.90;;;;;;2091418;28;20079;-71
2023/07/06 02:09:18;;;;;;;4.28;3.00;;;15.60;99.90;;;;;;2094125;28;20081;-71
2023/07/06 02:10:22;;;;;;;2.85;2.45;;;15.60;99.90;;;;;;2093209;28;20029;-71
2023/07/06 02:11:24;;;;;;;4.18;3.05;;;15.60;99.90;;;;;;2092973;28;20078;-71
2023/07/06 02:12:25;;;;;;;3.58;2.05;;;15.60;99.90;;;;;;2090640;28;20469;-71
2023/07/06 02:13:25;;;;;;;3.47;2.03;;;15.60;99.90;;;;;;2093448;28;20369;-71
2023/07/06 02:14:26;;;;;;;3.17;2.45;;;15.50;99.90;;;;;;2093782;28;20024;-71
2023/07/06 02:15:27;;;;;;;6.10;2.67;;;15.60;99.90;;;;;;2092845;28;20441;-71
2023/07/06 02:16:30;;;;;;;4.97;2.67;;;15.50;99.90;;;;;;2091699;28;20016;-71
2023/07/06 02:17:30;;;;;;;3.60;2.60;;;15.50;99.90;;;;;;2094039;28;20103;-71
2023/07/06 02:18:34;;;;;;;2.22;2.03;;;15.50;99.90;;;;;;2091829;28;20032;-71
2023/07/06 02:19:35;;;;;;;2.85;2.42;;;15.50;99.90;;;;;;2092349;28;20031;-71
2023/07/06 02:20:35;;;;;;;2.88;2.10;;;15.50;99.90;;;;;;2093000;28;20071;-71
2023/07/06 02:21:36;;;;;;;2.92;2.35;;;15.60;99.90;;;;;;2093614;28;20057;-71
2023/07/06 02:22:39;;;;;;;4.72;2.80;;;15.50;99.90;;;;;;2090924;28;20082;-71
2023/07/06 02:23:40;;;;;;;4.55;2.80;;;15.50;99.90;;;;;;2092846;28;20025;-71
2023/07/06 02:24:40;;;;;;;2.17;1.98;;;15.50;99.90;;;;;;2092060;28;20365;-71
2023/07/06 02:25:42;;;;;;;2.38;2.17;;;15.50;99.90;;;;;;2092167;28;20028;-71
2023/07/06 02:26:42;;;;;;;3.47;2.03;;;15.50;99.90;;;;;;2092059;28;20396;-71
2023/07/06 02:27:43;;;;;;;3.60;2.38;;;15.50;99.90;;;;;;2091407;28;20033;-71
2023/07/06 02:28:43;;;;;;;6.07;3.40;;;15.50;99.90;;;;;;2091815;28;20028;-71
2023/07/06 02:29:44;;;;;;;3.63;2.55;;;15.50;99.90;;;;;;2092076;28;20025;-71
2023/07/06 02:30:45;;;;;;;4.10;2.63;;;15.50;99.90;;;;;;2092252;28;20503;-71
2023/07/06 02:31:46;;;;;;;5.50;2.25;;;15.50;99.90;;;;;;2091105;28;20385;-71
2023/07/06 02:32:46;;;;;;;4.45;2.42;;;15.50;99.90;;;;;;2090434;28;20442;-71
2023/07/06 02:33:47;;;;;;;5.07;2.15;;;15.50;99.90;;;;;;2091534;28;20025;-71
2023/07/06 02:34:48;;;;;;;4.20;2.58;;;15.50;99.90;;;;;;2093243;28;20036;-71
2023/07/06 02:35:48;;;;;;;4.15;2.40;;;15.50;99.90;;;;;;2091064;28;20035;-71
2023/07/06 02:36:49;;;;;;;4.50;2.50;;;15.50;99.90;;;;;;2092550;28;20404;-71
2023/07/06 02:37:50;;;;;;;3.50;2.30;;;15.50;99.90;;;;;;2093442;28;20028;-71
2023/07/06 02:38:50;;;;;;;3.05;2.13;;;15.40;99.90;;;;;;2092724;28;20061;-71
2023/07/06 02:39:51;;;;;;;5.07;2.28;;;15.40;99.90;;;;;;2089603;28;20669;-71
2023/07/06 02:40:51;;;;;;;4.85;2.90;;;15.40;99.90;;;;;;2089799;28;20021;-71
2023/07/06 02:41:54;;;;;;;3.45;2.42;;;15.40;99.90;;;;;;2090487;28;20074;-71
2023/07/06 02:42:55;;;;;;;7.28;2.70;;;15.40;99.90;;;;;;2092203;28;20028;-71
2023/07/06 02:43:57;;;;;;;2.53;2.10;;;15.40;99.90;;;;;;2095185;28;20031;-71
2023/07/06 02:44:57;;;;;;;4.70;3.10;;;15.40;99.90;;;;;;2091409;28;20052;-71
2023/07/06 02:45:59;;;;;;;2.50;2.30;;;15.40;99.90;;;;;;2092896;28;20021;-72
2023/07/06 02:47:00;;;;;;;5.45;2.63;;;15.40;99.90;;;;;;2092302;28;20485;-72
2023/07/06 02:48:00;;;;;;;4.20;2.25;;;15.40;99.90;;;;;;2093265;28;20388;-71
2023/07/06 02:49:03;;;;;;;4.25;2.78;;;15.40;99.90;;;;;;2092294;28;20407;-71
2023/07/06 02:50:10;;;;;;;4.63;2.25;;;15.40;99.90;;;;;;2091542;28;20071;-71
2023/07/06 02:51:11;;;;;;;4.35;2.80;;;15.30;99.90;;;;;;2092496;28;20384;-71
2023/07/06 02:52:11;;;;;;;5.63;3.00;;;15.30;99.90;;;;;;2092711;28;20087;-71
2023/07/06 02:53:12;;;;;;;4.03;2.30;;;15.30;99.90;;;;;;2091790;28;20044;-71
2023/07/06 02:54:15;;;;;;;3.72;2.28;;;15.30;99.90;;;;;;2090503;28;20029;-71
2023/07/06 02:55:16;;;;;;;5.53;2.67;;;15.30;99.90;;;;;;2092046;28;20380;-71
2023/07/06 02:56:17;;;;;;;4.22;2.67;;;15.30;99.90;;;;;;2093552;28;20056;-71
2023/07/06 02:57:17;;;;;;;3.92;2.58;;;15.30;99.90;;;;;;2090924;28;20021;-71
2023/07/06 02:58:18;;;;;;;3.83;2.33;;;15.30;99.90;;;;;;2091370;28;20021;-71
2023/07/06 02:59:18;;;;;;;4.53;2.22;;;15.30;99.90;;;;;;2093160;28;20021;-71
2023/07/06 03:00:19;;;;;;;3.83;2.30;;;15.30;99.90;;;;;;2091500;28;20029;-71
2023/07/06 03:01:20;;;;;;;4.28;2.65;;;15.30;99.90;;;;;;2091809;28;20064;-71
2023/07/06 03:02:20;;;;;;;2.55;2.35;;;15.30;99.90;;;;;;2092450;28;20052;-71
2023/07/06 03:03:23;;;;;;;5.47;2.70;;;15.20;99.90;;;;;;2091509;28;20028;-71
2023/07/06 03:04:24;;;;;;;5.78;2.95;;;15.30;99.90;;;;;;2091098;28;20063;-71
2023/07/06 03:05:25;;;;;;;3.38;2.42;;;15.30;99.90;;;;;;2092009;28;20452;-71
2023/07/06 03:06:27;;;;;;;3.63;3.05;;;15.20;99.90;;;;;;2093851;28;20511;-71
2023/07/06 03:07:27;;;;;;;4.43;2.88;;;15.20;99.90;;;;;;2094335;28;20059;-71
2023/07/06 03:08:28;;;;;;;4.07;2.70;;;15.20;99.90;;;;;;2092765;28;20052;-71
2023/07/06 03:09:28;;;;;;;7.18;3.28;;;15.20;99.90;;;;;;2094451;28;20020;-71
2023/07/06 03:10:30;;;;;;;5.25;2.60;;;15.20;99.90;;;;;;2094957;28;20099;-71
2023/07/06 03:11:31;;;;;;;4.50;2.55;;;15.20;99.90;;;;;;2095313;28;20043;-71
2023/07/06 03:12:36;;;;;;;3.95;3.05;;;15.20;99.90;;;;;;2092603;28;20016;-71
2023/07/06 03:13:37;;;;;;;4.18;2.80;;;15.20;99.90;;;;;;2091692;28;20017;-71
2023/07/06 03:14:38;;;;;;;3.97;2.78;;;15.20;99.90;;;;;;2090862;28;20021;-71
2023/07/06 03:15:40;;;;;;;3.53;2.78;;;15.20;99.90;;;;;;2090816;28;20443;-71
2023/07/06 03:16:41;;;;;;;4.82;3.20;;;15.20;99.90;;;;;;2093529;28;20378;-71
2023/07/06 03:17:48;;;;;;;3.05;2.55;;;15.20;99.90;;;;;;2091889;28;20055;-71
2023/07/06 03:18:48;;;;;;;6.05;3.00;;;15.10;99.90;;;;;;2091232;28;20443;-71
2023/07/06 03:19:51;;;;;;;2.63;2.40;;;15.10;99.90;;;;;;2091252;28;20033;-71
2023/07/06 03:20:52;;;;;;;5.82;3.08;;;15.10;99.90;;;;;;2092038;28;20043;-71
2023/07/06 03:21:58;;;;;;;7.22;2.88;;;15.10;99.90;;;;;;2091987;28;20070;-71
2023/07/06 03:22:59;;;;;;;6.10;3.10;;;15.10;99.90;;;;;;2091099;28;20108;-71
2023/07/06 03:24:00;;;;;;;3.55;2.70;;;15.10;99.90;;;;;;2092916;28;20082;-71
2023/07/06 03:25:01;;;;;;;3.50;2.60;;;15.10;99.90;;;;;;2093810;28;20016;-71
2023/07/06 03:26:01;;;;;;;6.18;2.75;;;15.10;99.90;;;;;;2090901;28;20035;-72
2023/07/06 03:27:02;;;;;;;3.50;2.53;;;15.10;99.90;;;;;;2093377;28;20021;-71
2023/07/06 03:28:03;;;;;;;4.80;2.80;;;15.20;99.90;;;;;;2091965;28;20250;-71
2023/07/06 03:29:04;;;;;;;5.55;3.03;;;15.10;99.90;;;;;;2091012;28;20584;-71
2023/07/06 03:30:09;;;;;;;4.68;2.70;;;15.10;99.90;;;;;;2091537;28;20609;-71
2023/07/06 03:31:10;;;;;;;3.53;3.13;;;15.10;99.90;;;;;;2091860;28;20021;-71
2023/07/06 03:32:11;;;;;;;5.57;3.15;;;15.20;99.90;;;;;;2093162;28;20499;-71
2023/07/06 03:33:11;;;;;;;3.83;3.15;;;15.10;99.90;;;;;;2091474;28;20488;-71
2023/07/06 03:34:12;;;;;;;5.15;2.78;;;15.10;99.90;;;;;;2090921;28;20103;-71
2023/07/06 03:35:13;;;;;;;5.53;2.95;;;15.10;99.90;;;;;;2092271;28;20036;-71
2023/07/06 03:36:14;;;;;;;5.75;3.03;;;15.10;99.90;;;;;;2091426;28;20055;-71
2023/07/06 03:37:14;;;;;;;7.07;3.40;;;15.20;99.90;;;;;;2092230;28;20025;-71
2023/07/06 03:38:15;;;;;;;4.20;2.67;;;15.10;99.90;;;;;;2092958;28;20029;-71
2023/07/06 03:39:15;;;;;;;5.88;3.58;;;15.20;99.90;;;;;;2092660;28;20063;-71
2023/07/06 03:40:16;;;;;;;5.35;3.05;;;15.10;99.90;;;;;;2091803;28;20096;-71
2023/07/06 03:41:18;;;;;;;3.65;2.88;;;15.10;99.90;;;;;;2091008;28;20028;-71
2023/07/06 03:42:19;;;;;;;5.13;3.00;;;15.10;99.90;;;;;;2092262;28;20044;-72
2023/07/06 03:43:19;;;;;;;6.32;2.67;;;15.20;99.90;;;;;;2092669;28;20066;-72
2023/07/06 03:44:24;;;;;;;5.80;3.50;;;15.20;99.90;;;;;;2091893;28;20033;-72
2023/07/06 03:45:24;;;;;;;5.30;2.92;;;15.10;99.90;;;;;;2093333;28;20507;-71
2023/07/06 03:46:32;;;;;;;4.07;2.63;;;15.10;99.90;;;;;;2092019;28;20017;-71
2023/07/06 03:47:33;;;;;;;6.65;3.15;;;15.10;99.90;;;;;;2091946;28;20033;-71
2023/07/06 03:48:34;;;;;;;5.07;2.58;;;15.10;99.90;;;;;;2093920;28;20052;-71
2023/07/06 03:49:35;;;;;;;4.45;2.83;;;15.20;99.90;;;;;;2093385;28;20016;-71
2023/07/06 03:50:36;;;;;;;5.80;3.67;;;15.20;99.90;;;;;;2090783;28;20036;-71
2023/07/06 03:51:37;;;;;;;4.72;2.53;;;15.20;99.90;;;;;;2091187;28;20025;-71
2023/07/06 03:52:37;;;;;;;4.80;2.50;;;15.20;99.90;;;;;;2091204;28;20020;-71
2023/07/06 03:53:38;;;;;;;4.88;2.70;;;15.20;99.90;;;;;;2093059;28;20028;-71
2023/07/06 03:54:39;;;;;;;4.93;2.83;;;15.20;99.90;;;;;;2090509;28;20028;-71
2023/07/06 03:55:40;;;;;;;2.97;2.70;;;15.20;99.90;;;;;;2089894;28;20123;-71
2023/07/06 03:56:42;;;;;;;3.70;2.50;;;15.20;99.90;;;;;;2091703;28;20029;-71
2023/07/06 03:57:45;;;;;;;6.93;2.90;;;15.10;99.90;;;;;;2093318;28;20028;-71
2023/07/06 03:58:46;;;;;;;4.18;2.58;;;15.20;99.90;;;;;;2092862;28;20027;-71
2023/07/06 03:59:46;;;;;;;5.85;2.67;;;15.20;99.90;;;;;;2090226;28;20060;-71
2023/07/06 04:00:47;;;;;;;4.88;2.92;;;15.20;99.90;;;;;;2090301;28;20029;-71
2023/07/06 04:01:48;;;;;;;4.90;2.92;;;15.20;99.90;;;;;;2092658;28;21736;-71
2023/07/06 04:02:54;;;;;;;3.38;3.15;;;15.20;99.90;;;;;;2093603;28;20029;-71
2023/07/06 04:03:55;;;;;;;5.93;2.97;;;15.20;99.90;;;;;;2090513;28;20021;-71
2023/07/06 04:04:56;;;;;;;6.10;3.40;;;15.20;99.90;;;;;;2092095;28;20100;-71
2023/07/06 04:05:57;;;;;;;4.57;2.50;;;15.20;99.90;;;;;;2090848;28;20044;-71
2023/07/06 04:06:58;;;;;;;4.78;2.60;;;15.20;99.90;;;;;;2092431;28;20028;-71
2023/07/06 04:08:03;;;;;;;6.53;3.50;;;15.30;99.90;;;;;;2092869;28;20032;-71
2023/07/06 04:09:04;;;;;;;7.35;2.70;;;15.30;99.90;;;;;;2093309;28;20078;-71
2023/07/06 04:10:08;;;;;;;5.25;3.28;;;15.40;99.90;;;;;;2090709;28;20102;-71
2023/07/06 04:11:08;;;;;;;5.38;2.58;;;15.50;99.90;;;;;;2090730;28;20028;-71
2023/07/06 04:12:09;;;;;;;3.22;2.50;;;15.60;99.90;;;;;;2091364;28;20112;-71
2023/07/06 04:13:13;;;;;;;4.05;2.63;;;15.70;99.90;;;;;;2092873;28;20028;-71
2023/07/06 04:14:15;;;;;;;4.78;2.75;;;15.80;99.90;;;;;;2092837;28;20484;-71
2023/07/06 04:15:17;;;;;;;4.68;3.30;;;15.90;99.90;;;;;;2091377;28;20077;-71
2023/07/06 04:16:18;;;;;;;5.95;2.92;;;16.00;99.90;;;;;;2091766;28;20051;-71
2023/07/06 04:17:19;;;;;;;4.82;2.65;;;16.20;99.90;;;;;;2091511;28;20103;-71
2023/07/06 04:18:19;;;;;;;4.20;2.50;;;16.30;99.90;;;;;;2090314;28;20074;-71
2023/07/06 04:19:21;;;;;;;6.30;3.10;;;16.50;99.90;;;;;;2090270;28;20442;-71
2023/07/06 04:20:24;;;;;;;4.90;2.42;;;16.70;99.90;;;;;;2090226;28;20575;-71
2023/07/06 04:21:25;;;;;;;5.25;2.85;;;16.90;99.90;;;;;;2092057;28;20043;-71
2023/07/06 04:22:25;;;;;;;5.30;2.80;;;17.10;99.90;;;;;;2092061;28;20029;-71
2023/07/06 04:23:26;;;;;;;4.80;2.20;;;17.30;99.90;;;;;;2092094;28;20027;-71
2023/07/06 04:24:31;;;;;;;5.68;2.75;;;17.50;99.90;;;;;;2091564;28;20020;-71
2023/07/06 04:25:33;;;;;;;4.45;2.50;;;17.60;99.90;;;;;;2092981;28;20020;-71
2023/07/06 04:26:34;;;;;;;5.10;2.83;;;17.80;99.90;;;;;;2092183;28;20051;-71
2023/07/06 04:27:35;;;;;;;7.75;3.05;;;18.00;99.90;;;;;;2092375;28;20413;-71
2023/07/06 04:28:38;;;;;;;3.03;2.22;;;18.10;99.90;;;;;;2092792;28;20027;-71
2023/07/06 04:29:38;;;;;;;4.82;2.30;;;18.30;99.90;;;;;;2091218;28;20020;-71
2023/07/06 04:30:45;;;;;;;6.20;2.88;;;18.40;99.90;;;;;;2090606;28;20091;-71
2023/07/06 04:31:46;;;;;;;8.68;2.85;;;18.60;99.90;;;;;;2091382;28;20029;-71
2023/07/06 04:32:50;;;;;;;8.20;2.70;;;18.60;99.90;;;;;;2092233;28;20041;-71
2023/07/06 04:33:51;;;;;;;6.63;2.50;;;18.60;99.90;;;;;;2091749;28;20025;-71
2023/07/06 04:34:51;;;;;;;8.00;2.60;;;18.60;99.90;;;;;;2090119;28;20504;-71
2023/07/06 04:35:52;;;;;;;5.50;2.80;;;18.50;99.90;;;;;;2091124;28;20502;-71
2023/07/06 04:36:53;;;;;;;5.40;2.10;;;18.50;99.90;;;;;;2092765;28;20062;-71
2023/07/06 04:37:53;;;;;;;5.13;2.20;;;18.40;99.90;;;;;;2093410;28;20028;-71
2023/07/06 04:38:54;;;;;;;7.35;2.20;;;18.40;99.90;;;;;;2091193;28;20095;-71
2023/07/06 04:39:55;;;;;;;6.53;2.50;;;18.40;99.90;;;;;;2093398;28;20025;-71
2023/07/06 04:40:57;;;;;;;6.28;2.22;;;18.30;99.90;;;;;;2090491;28;20040;-71
2023/07/06 04:41:57;;;;;;;4.60;2.47;;;18.30;99.90;;;;;;2091514;28;20025;-71
2023/07/06 04:42:58;;;;;;;4.57;2.13;;;18.40;99.90;;;;;;2092292;28;20108;-71
2023/07/06 04:43:58;;;;;;;5.55;2.22;;;18.40;99.90;;;;;;2091080;28;20032;-71
2023/07/06 04:44:59;;;;;;;11.57;2.38;;;18.30;99.90;;;;;;2092170;28;20017;-71
2023/07/06 04:45:59;;;;;;;6.68;2.30;;;18.40;99.90;;;;;;2089751;28;20049;-71
2023/07/06 04:47:00;;;;;;;4.68;2.38;;;18.40;99.90;;;;;;2091396;28;20056;-71
2023/07/06 04:48:00;;;;;;;3.30;1.75;;;18.40;99.90;;;;;;2092034;28;20029;-71
2023/07/06 04:49:01;;;;;;;5.28;2.28;;;18.50;99.90;;;;;;2090281;28;20064;-71
2023/07/06 04:50:03;;;;;;;3.38;2.10;;;18.50;99.90;;;;;;2091964;28;20040;-71
2023/07/06 04:51:04;;;;;;;4.13;2.03;;;18.50;99.90;;;;;;2089847;28;20025;-71
2023/07/06 04:52:06;;;;;;;4.78;1.90;;;18.60;99.90;;;;;;2091396;28;20048;-71
2023/07/06 04:53:07;;;;;;;4.30;2.03;;;18.60;99.90;;;;;;2091696;28;20063;-71
2023/07/06 04:54:08;;;;;;;5.63;2.45;;;18.60;99.90;;;;;;2092327;28;20044;-71
2023/07/06 04:55:10;;;;;;;6.10;2.65;;;18.70;99.90;;;;;;2091506;28;20025;-71
2023/07/06 04:56:11;;;;;;;5.85;2.30;;;18.70;99.90;;;;;;2092959;28;20012;-71
2023/07/06 04:57:16;;;;;;;4.28;2.08;;;18.80;99.90;;;;;;2091421;28;20017;-71
2023/07/06 04:58:17;;;;;;;6.95;2.17;;;18.80;99.90;;;;;;2092319;28;20108;-71
2023/07/06 04:59:18;;;;;;;5.30;2.15;;;18.90;99.90;;;;;;2091068;28;20240;-71
2023/07/06 05:00:24;;;;;;;5.22;2.40;;;18.90;99.90;;;;;;2089235;28;20029;-71
2023/07/06 05:01:26;;;;;;;6.47;2.35;;;19.00;99.90;;;;;;2092172;28;20020;-71
2023/07/06 05:02:30;;;;;;;5.38;1.92;;;19.00;99.90;;;;;;2091254;28;20640;-71
2023/07/06 05:03:30;;;;;;;4.50;2.03;;;19.10;99.90;;;;;;2090634;28;20098;-71
2023/07/06 05:04:31;;;;;;;7.03;2.20;;;19.10;99.90;;;;;;2091542;28;20029;-71
2023/07/06 05:05:39;;;;;;;5.32;2.22;;;19.20;99.90;;;;;;2091090;28;20021;-71
2023/07/06 05:06:39;;;;;;;6.10;2.05;;;19.20;99.90;;;;;;2089811;28;20017;-71
2023/07/06 05:07:41;;;;;;;5.32;2.03;;;19.30;99.90;;;;;;2092639;28;20101;-71
2023/07/06 05:08:44;;;;;;;6.90;2.15;;;19.30;99.90;;;;;;2092328;28;20017;-71
2023/07/06 05:09:49;;;;;;;5.00;1.92;;;19.40;99.90;;;;;;2090844;28;20469;-71
2023/07/06 05:10:51;;;;;;;4.38;2.00;;;19.40;99.90;;;;;;2091449;28;20021;-71
2023/07/06 05:11:52;;;;;;;4.80;1.90;;;19.40;99.90;;;;;;2091444;28;20027;-71
2023/07/06 05:12:55;;;;;;;5.50;2.58;;;19.50;99.90;;;;;;2091510;28;20036;-71
2023/07/06 05:13:56;;;;;;;7.18;2.50;;;19.60;99.90;;;;;;2091988;28;20019;-71
2023/07/06 05:14:57;;;;;;;4.32;1.98;;;19.60;99.90;;;;;;2090613;28;20024;-71
2023/07/06 05:15:58;;;;;;;6.55;2.08;;;19.70;99.90;;;;;;2090957;28;20027;-71
2023/07/06 05:16:58;;;;;;;5.28;2.63;;;19.70;99.90;;;;;;2091368;28;20074;-71
2023/07/06 05:18:01;;;;;;;3.53;2.08;;;19.80;99.90;;;;;;2092333;28;20104;-71
2023/07/06 05:19:02;;;;;;;4.53;2.30;;;19.90;99.90;;;;;;2093187;28;20021;-71
2023/07/06 05:20:08;;;;;;;13.45;2.15;;;19.90;99.90;;;;;;2090865;28;20603;-71
2023/07/06 05:21:10;;;;;;;4.47;1.83;;;20.00;99.90;;;;;;2091821;28;20047;-71
2023/07/06 05:22:12;;;;;;;4.70;2.13;;;20.00;99.90;;;;;;2090209;28;20695;-71
2023/07/06 05:23:12;;;;;;;3.28;2.00;;;20.00;99.90;;;;;;2091570;28;20016;-71
2023/07/06 05:24:13;;;;;;;5.63;2.40;;;20.10;99.90;;;;;;2090990;28;20025;-71
2023/07/06 05:25:18;;;;;;;7.72;2.42;;;20.20;99.90;;;;;;2093227;28;20024;-71
2023/07/06 05:26:19;;;;;;;4.55;1.90;;;20.20;99.90;;;;;;2091675;28;20098;-71
2023/07/06 05:27:19;;;;;;;7.93;2.72;;;20.30;99.90;;;;;;2092149;28;20017;-71
2023/07/06 05:28:21;;;;;;;7.00;2.40;;;20.30;99.90;;;;;;2091247;28;20043;-71
2023/07/06 05:29:21;;;;;;;4.82;2.05;;;20.40;99.90;;;;;;2090728;28;20088;-71
2023/07/06 05:30:22;;;;;;;4.82;2.00;;;20.40;99.90;;;;;;2089560;28;20124;-71